createdAt,value
2022-12-09T00:02:28.618Z,8.50
2022-12-09T00:05:07.817Z,9.00
2022-12-09T00:08:27.124Z,8.65
2022-12-09T00:11:56.847Z,8.20
2022-12-09T00:18:38.703Z,7.45
2022-12-09T00:21:27.097Z,8.13
2022-12-09T00:24:08.967Z,8.75
2022-12-09T00:26:40.938Z,9.10
2022-12-09T00:33:21.742Z,8.70
2022-12-09T00:36:50.991Z,8.45
2022-12-09T00:40:17.449Z,9.68
2022-12-09T00:42:47.739Z,8.02
2022-12-09T00:46:15.686Z,9.52
2022-12-09T00:52:10.411Z,8.30
2022-12-09T00:55:26.853Z,8.65
2022-12-09T00:58:48.653Z,8.27
2022-12-09T01:01:35.168Z,8.27
2022-12-09T01:04:56.762Z,8.03
2022-12-09T01:11:25.321Z,8.10
2022-12-09T01:14:06.654Z,7.97
2022-12-09T01:16:56.467Z,8.10
2022-12-09T01:19:28.583Z,8.70
2022-12-09T01:22:55.762Z,8.02
2022-12-09T01:25:43.140Z,9.05
2022-12-09T01:29:09.092Z,8.35
2022-12-09T01:32:22.096Z,8.85
2022-12-09T01:35:05.390Z,8.20
2022-12-09T01:38:33.141Z,9.30
2022-12-09T01:41:59.816Z,8.43
2022-12-09T01:48:51.820Z,8.50
2022-12-09T01:51:34.696Z,8.07
2022-12-09T01:54:19.839Z,8.73
2022-12-09T01:57:46.749Z,7.50
2022-12-09T02:01:16.671Z,7.75
2022-12-09T02:04:44.851Z,8.13
2022-12-09T02:07:35.634Z,9.00
2022-12-09T02:11:05.624Z,8.75
2022-12-09T02:14:35.625Z,8.40
2022-12-09T02:17:26.794Z,8.18
2022-12-09T02:20:56.673Z,9.30
2022-12-09T02:31:02.771Z,9.18
2022-12-09T02:37:22.959Z,8.90
2022-12-09T02:46:58.986Z,8.23
2022-12-09T02:50:15.477Z,8.15
2022-12-09T02:53:31.789Z,8.13
2022-12-09T02:56:16.329Z,8.13
2022-12-09T02:59:30.069Z,8.52
2022-12-09T03:02:15.652Z,7.78
2022-12-09T03:05:31.589Z,8.98
2022-12-09T03:08:42.856Z,8.23
2022-12-09T03:11:58.880Z,8.32
2022-12-09T03:18:11.673Z,8.63
2022-12-09T03:20:56.741Z,7.97
2022-12-09T03:24:22.754Z,8.48
2022-12-09T03:27:49.342Z,9.48
2022-12-09T03:31:05.636Z,9.05
2022-12-09T03:34:32.876Z,9.18
2022-12-09T03:37:23.781Z,9.68
2022-12-09T03:40:50.783Z,9.40
2022-12-09T03:43:41.533Z,8.98
2022-12-09T03:46:42.759Z,9.48
2022-12-09T03:50:08.629Z,9.02
2022-12-09T03:52:56.487Z,9.38
2022-12-09T03:56:12.948Z,8.77
2022-12-09T03:58:58.462Z,9.52
2022-12-09T04:01:45.336Z,10.02
2022-12-09T04:04:36.018Z,9.70
2022-12-09T04:07:52.494Z,10.80
2022-12-09T04:11:08.567Z,11.88
2022-12-09T04:13:40.620Z,11.20
2022-12-09T04:17:08.619Z,11.85
2022-12-09T04:20:09.400Z,11.38
2022-12-09T04:23:47.463Z,11.52
2022-12-09T04:33:51.551Z,11.90
2022-12-09T04:36:21.803Z,11.98
2022-12-09T04:39:46.822Z,10.75
2022-12-09T04:42:46.108Z,9.20
2022-12-09T04:45:35.016Z,9.60
2022-12-09T04:48:14.082Z,10.07
2022-12-09T04:51:13.729Z,10.32
2022-12-09T04:53:45.754Z,10.00
2022-12-09T04:56:20.348Z,9.65
2022-12-09T04:59:03.717Z,34.22
2022-12-09T05:02:31.452Z,35.10
2022-12-09T05:05:05.759Z,35.10
2022-12-09T05:07:55.136Z,25.42
2022-12-09T05:13:51.959Z,16.92
2022-12-09T05:16:31.787Z,17.73
2022-12-09T05:19:06.487Z,20.08
2022-12-09T05:22:43.628Z,17.73
2022-12-09T05:25:56.145Z,16.08
2022-12-09T05:28:26.308Z,14.45
2022-12-09T05:31:17.934Z,14.38
2022-12-09T05:34:32.040Z,12.77
2022-12-09T05:37:16.668Z,13.65
2022-12-09T05:39:44.799Z,13.30
2022-12-09T05:42:16.049Z,13.40
2022-12-09T05:44:43.913Z,13.38
2022-12-09T05:47:19.402Z,13.15
2022-12-09T05:49:47.686Z,13.43
2022-12-09T05:52:23.400Z,13.50
2022-12-09T05:54:51.912Z,12.35
2022-12-09T05:57:26.894Z,12.80
2022-12-09T05:59:55.290Z,11.43
2022-12-09T06:02:23.414Z,11.65
2022-12-09T06:04:52.020Z,11.13
2022-12-09T06:07:20.590Z,11.05
2022-12-09T06:09:49.578Z,11.70
2022-12-09T06:12:20.492Z,12.57
2022-12-09T06:15:36.756Z,12.60
2022-12-09T06:18:19.316Z,10.88
2022-12-09T06:20:47.874Z,11.75
2022-12-09T06:23:16.035Z,10.80
2022-12-09T06:25:45.976Z,11.40
2022-12-09T06:28:14.589Z,10.45
2022-12-09T06:30:42.789Z,11.43
2022-12-09T06:33:36.959Z,10.15
2022-12-09T06:38:30.225Z,11.57
2022-12-09T06:40:58.322Z,10.60
2022-12-09T06:43:26.486Z,10.30
2022-12-09T06:45:54.728Z,11.43
2022-12-09T06:48:22.944Z,11.02
2022-12-09T06:50:52.105Z,11.85
2022-12-09T06:53:21.069Z,11.02
2022-12-09T06:55:49.406Z,11.20
2022-12-09T06:58:17.387Z,11.35
2022-12-09T07:00:45.350Z,11.95
2022-12-09T07:03:13.984Z,11.55
2022-12-09T07:05:43.647Z,11.43
2022-12-09T07:08:12.540Z,11.68
2022-12-09T07:10:41.771Z,11.52
2022-12-09T07:13:09.757Z,11.68
2022-12-09T07:15:38.148Z,11.77
2022-12-09T07:18:08.469Z,12.55
2022-12-09T07:20:36.769Z,11.38
2022-12-09T07:23:05.284Z,10.73
2022-12-09T07:25:33.273Z,11.98
2022-12-09T07:28:01.355Z,11.98
2022-12-09T07:30:29.344Z,8.32
2022-12-09T07:32:57.668Z,9.52
2022-12-09T07:35:26.031Z,10.75
2022-12-09T07:37:56.515Z,10.88
2022-12-09T07:40:24.619Z,7.82
2022-12-09T07:42:57.618Z,7.53
2022-12-09T07:45:27.165Z,9.90
2022-12-09T07:47:55.377Z,5.75
2022-12-09T07:50:23.425Z,7.25
2022-12-09T07:52:51.461Z,6.97
2022-12-09T07:55:19.711Z,8.35
2022-12-09T07:57:47.945Z,9.48
2022-12-09T08:00:16.562Z,9.23
2022-12-09T08:02:44.984Z,10.30
2022-12-09T08:05:13.391Z,9.18
2022-12-09T08:07:44.590Z,8.23
2022-12-09T08:10:13.111Z,8.18
2022-12-09T08:12:41.300Z,6.85
2022-12-09T08:15:10.399Z,7.50
2022-12-09T08:17:38.835Z,7.88
2022-12-09T08:20:08.055Z,7.88
2022-12-09T08:22:37.037Z,7.85
2022-12-09T08:25:06.015Z,8.05
2022-12-09T08:27:34.545Z,6.00
2022-12-09T08:30:02.720Z,6.55
2022-12-09T08:32:32.684Z,7.80
2022-12-09T08:35:01.084Z,8.05
2022-12-09T08:37:29.264Z,9.10
2022-12-09T08:39:57.188Z,7.93
2022-12-09T08:42:25.626Z,8.18
2022-12-09T08:44:58.603Z,7.63
2022-12-09T08:47:32.976Z,8.82
2022-12-09T08:50:01.093Z,10.02
2022-12-09T08:52:29.726Z,6.80
2022-12-09T08:54:58.539Z,7.28
2022-12-09T08:57:28.799Z,6.05
2022-12-09T08:59:57.140Z,8.18
2022-12-09T09:02:25.435Z,9.05
2022-12-09T09:04:53.840Z,6.13
2022-12-09T09:07:22.672Z,5.15
2022-12-09T09:09:51.239Z,7.00
2022-12-09T09:12:19.596Z,8.25
2022-12-09T09:14:47.696Z,9.50
2022-12-09T09:17:16.109Z,6.97
2022-12-09T09:19:44.123Z,7.25
2022-12-09T09:22:12.489Z,10.38
2022-12-09T09:24:41.709Z,10.05
2022-12-09T09:27:09.688Z,7.07
2022-12-09T09:29:39.690Z,9.82
2022-12-09T09:32:08.954Z,7.97
2022-12-09T09:34:37.060Z,8.52
2022-12-09T09:37:05.154Z,6.53
2022-12-09T09:39:35.527Z,8.50
2022-12-09T09:42:08.868Z,8.50
2022-12-09T09:44:46.247Z,7.88
2022-12-09T09:47:49.486Z,9.00
2022-12-09T09:50:48.045Z,8.82
2022-12-09T09:53:24.705Z,9.68
2022-12-09T09:55:59.179Z,8.63
2022-12-09T09:58:58.965Z,7.57
2022-12-09T10:01:33.625Z,8.07
2022-12-09T10:04:06.648Z,8.07
2022-12-09T10:07:07.098Z,9.27
2022-12-09T10:09:46.161Z,7.65
2022-12-09T10:12:14.449Z,9.05
2022-12-09T10:15:02.470Z,7.15
2022-12-09T10:17:40.171Z,8.65
2022-12-09T10:20:27.669Z,9.00
2022-12-09T10:23:06.029Z,8.07
2022-12-09T10:25:37.524Z,6.72
2022-12-09T10:28:29.924Z,5.38
2022-12-09T10:30:58.342Z,7.25
2022-12-09T10:33:28.699Z,6.90
2022-12-09T10:35:57.030Z,8.18
2022-12-09T10:38:26.729Z,7.00
2022-12-09T10:41:55.282Z,6.65
2022-12-09T10:44:27.563Z,7.20
2022-12-09T10:47:04.443Z,8.43
2022-12-09T10:49:34.027Z,9.80
2022-12-09T10:52:05.434Z,8.35
2022-12-09T10:54:51.720Z,6.22
2022-12-09T10:57:19.635Z,8.48
2022-12-09T11:00:01.111Z,7.72
2022-12-09T11:02:31.918Z,8.13
2022-12-09T11:05:39.316Z,8.45
2022-12-09T11:08:08.008Z,6.60
2022-12-09T11:10:38.082Z,8.85
2022-12-09T11:13:08.970Z,7.90
2022-12-09T11:15:46.174Z,8.15
2022-12-09T11:18:30.386Z,7.15
2022-12-09T11:21:07.356Z,7.60
2022-12-09T11:23:36.804Z,8.57
2022-12-09T11:26:07.737Z,8.43
2022-12-09T11:28:40.464Z,8.30
2022-12-09T11:31:29.419Z,5.70
2022-12-09T11:34:18.042Z,7.45
2022-12-09T11:39:34.780Z,8.10
2022-12-09T11:42:18.798Z,8.15
2022-12-09T11:44:54.288Z,9.23
2022-12-09T11:47:57.227Z,8.32
2022-12-09T11:50:32.861Z,6.60
2022-12-09T11:53:12.173Z,9.10
2022-12-09T11:55:50.156Z,8.02
2022-12-09T11:58:27.569Z,9.23
2022-12-09T12:01:06.399Z,8.40
2022-12-09T12:03:51.797Z,7.30
2022-12-09T12:06:52.688Z,8.13
2022-12-09T12:09:26.939Z,7.53
2022-12-09T12:12:24.448Z,8.00
2022-12-09T12:14:56.933Z,7.70
2022-12-09T12:17:36.931Z,8.88
2022-12-09T12:20:06.255Z,7.97
2022-12-09T12:23:03.145Z,8.05
2022-12-09T12:25:57.269Z,9.15
2022-12-09T12:29:07.323Z,9.40
2022-12-09T12:32:02.040Z,9.50
2022-12-09T12:34:51.917Z,9.02
2022-12-09T12:37:41.457Z,9.85
2022-12-09T12:40:30.637Z,9.70
2022-12-09T12:43:41.750Z,9.75
2022-12-09T12:46:28.493Z,7.80
2022-12-09T12:49:32.248Z,8.73
2022-12-09T12:52:54.876Z,5.95
2022-12-09T12:55:42.967Z,8.43
2022-12-09T12:58:42.185Z,8.70
2022-12-09T13:01:51.370Z,10.50
2022-12-09T13:04:40.539Z,8.95
2022-12-09T13:07:40.802Z,9.30
2022-12-09T13:10:37.000Z,5.10
2022-12-09T13:13:15.215Z,9.25
2022-12-09T13:15:47.511Z,8.85
2022-12-09T13:18:29.711Z,8.50
2022-12-09T13:21:02.982Z,9.40
2022-12-09T13:23:54.538Z,8.60
2022-12-09T13:26:56.163Z,8.55
2022-12-09T13:29:58.154Z,9.27
2022-12-09T13:33:03.810Z,9.27
2022-12-09T13:36:01.580Z,8.13
2022-12-09T13:38:36.715Z,8.35
2022-12-09T13:41:51.770Z,8.70
2022-12-09T13:44:20.032Z,5.88
2022-12-09T13:46:48.188Z,8.77
2022-12-09T13:49:25.344Z,8.68
2022-12-09T13:54:29.879Z,9.00
2022-12-09T13:57:35.904Z,9.02
2022-12-09T14:00:06.965Z,8.10
2022-12-09T14:02:52.637Z,7.50
2022-12-09T14:05:26.554Z,7.70
2022-12-09T14:08:01.948Z,8.13
2022-12-09T14:10:38.064Z,8.25
2022-12-09T14:13:19.884Z,9.82
2022-12-09T14:16:08.495Z,9.32
2022-12-09T14:18:39.894Z,10.55
2022-12-09T14:21:20.297Z,9.55
2022-12-09T14:26:44.822Z,10.02
2022-12-09T14:29:35.245Z,10.93
2022-12-09T14:32:08.072Z,11.88
2022-12-09T14:34:38.775Z,9.23
2022-12-09T14:37:27.507Z,11.65
2022-12-09T14:40:13.985Z,11.32
2022-12-09T14:43:00.326Z,11.40
2022-12-09T14:45:46.798Z,12.70
2022-12-09T14:48:21.113Z,11.38
2022-12-09T14:51:05.345Z,13.70
2022-12-09T14:53:36.314Z,12.05
2022-12-09T14:56:05.501Z,11.43
2022-12-09T14:58:33.814Z,13.23
2022-12-09T15:01:03.989Z,11.15
2022-12-09T15:03:36.852Z,12.55
2022-12-09T15:06:18.966Z,12.75
2022-12-09T15:08:47.607Z,13.85
2022-12-09T15:11:18.617Z,15.15
2022-12-09T15:13:49.696Z,17.10
2022-12-09T15:16:20.036Z,12.93
2022-12-09T15:18:49.285Z,13.60
2022-12-09T15:21:31.385Z,14.00
2022-12-09T15:24:00.492Z,14.18
2022-12-09T15:26:33.724Z,21.83
2022-12-09T15:29:07.097Z,18.95
2022-12-09T15:31:48.023Z,17.30
2022-12-09T15:34:23.227Z,18.30
2022-12-09T15:37:01.178Z,20.77
2022-12-09T15:39:40.241Z,22.20
2022-12-09T15:42:15.648Z,16.90
2022-12-09T15:44:54.593Z,15.30
2022-12-09T15:47:22.618Z,13.35
2022-12-09T15:50:01.167Z,12.95
2022-12-09T15:52:34.686Z,12.00
2022-12-09T15:55:07.117Z,15.07
2022-12-09T15:57:36.066Z,12.95
2022-12-09T16:00:05.592Z,13.05
2022-12-09T16:02:35.088Z,13.95
2022-12-09T16:05:08.029Z,14.10
2022-12-09T16:07:36.553Z,14.02
2022-12-09T16:10:17.576Z,12.00
2022-12-09T16:12:45.458Z,12.23
2022-12-09T16:15:35.034Z,12.90
2022-12-09T16:18:04.316Z,13.25
2022-12-09T16:20:42.704Z,12.80
2022-12-09T16:23:24.018Z,11.63
2022-12-09T16:25:55.765Z,13.15
2022-12-09T16:28:26.312Z,13.07
2022-12-09T16:31:02.371Z,13.75
2022-12-09T16:33:41.099Z,30.63
2022-12-09T16:36:21.639Z,14.20
2022-12-09T16:39:07.285Z,13.10
2022-12-09T16:41:53.125Z,13.77
2022-12-09T16:44:36.139Z,13.30
2022-12-09T16:47:19.211Z,14.73
2022-12-09T16:49:48.580Z,14.98
2022-12-09T16:52:25.317Z,13.13
2022-12-09T16:54:56.480Z,13.98
2022-12-09T16:57:27.613Z,12.65
2022-12-09T16:59:55.510Z,14.05
2022-12-09T17:02:43.331Z,12.95
2022-12-09T17:07:38.929Z,13.00
2022-12-09T17:10:13.454Z,11.73
2022-12-09T17:12:45.955Z,11.75
2022-12-09T17:15:17.268Z,11.82
2022-12-09T17:17:48.914Z,12.55
2022-12-09T17:20:17.394Z,11.65
2022-12-09T17:22:47.835Z,12.48
2022-12-09T17:25:17.707Z,11.10
2022-12-09T17:32:43.659Z,11.65
2022-12-09T17:35:27.555Z,11.95
2022-12-09T17:37:55.741Z,10.32
2022-12-09T17:40:27.838Z,12.30
2022-12-09T17:42:55.983Z,12.45
2022-12-09T17:45:24.266Z,11.70
2022-12-09T17:47:53.938Z,12.15
2022-12-09T17:50:22.250Z,11.43
2022-12-09T17:52:50.285Z,11.60
2022-12-09T17:55:18.242Z,11.85
2022-12-09T17:57:49.916Z,12.30
2022-12-09T18:04:12.607Z,11.93
2022-12-09T18:13:59.289Z,24.25
2022-12-09T18:16:28.018Z,27.17
2022-12-09T18:18:57.447Z,27.17
2022-12-09T18:21:26.074Z,10.27
2022-12-09T18:23:54.816Z,10.10
2022-12-09T18:26:30.664Z,10.07
2022-12-09T18:29:07.556Z,9.73
2022-12-09T18:31:39.019Z,9.80
2022-12-09T18:34:10.224Z,8.48
2022-12-09T18:36:39.037Z,10.60
2022-12-09T18:39:10.850Z,8.93
2022-12-09T18:41:39.913Z,8.90
2022-12-09T18:44:14.693Z,8.90
2022-12-09T18:46:51.970Z,9.35
2022-12-09T18:49:27.524Z,8.98
2022-12-09T18:52:04.178Z,7.57
2022-12-09T18:54:36.959Z,9.68
2022-12-09T18:57:10.385Z,9.88
2022-12-09T18:59:40.482Z,9.10
2022-12-09T19:02:11.027Z,8.45
2022-12-09T19:04:39.913Z,9.73
2022-12-09T19:07:32.088Z,10.35
2022-12-09T19:10:08.359Z,8.60
2022-12-09T19:12:47.015Z,9.23
2022-12-09T19:15:19.338Z,9.77
2022-12-09T19:17:50.759Z,8.93
2022-12-09T19:20:24.208Z,9.60
2022-12-09T19:22:55.920Z,9.68
2022-12-09T19:28:16.254Z,9.77
2022-12-09T19:30:49.813Z,8.98
2022-12-09T19:33:24.058Z,9.88
2022-12-09T19:35:53.384Z,9.68
2022-12-09T19:38:29.366Z,9.13
2022-12-09T19:41:11.570Z,9.73
2022-12-09T19:43:40.952Z,9.63
2022-12-09T19:46:16.450Z,9.48
2022-12-09T19:48:50.623Z,8.98
2022-12-09T19:51:21.923Z,10.38
2022-12-09T19:53:53.333Z,9.63
2022-12-09T19:56:24.404Z,8.52
2022-12-09T19:58:56.869Z,9.13
2022-12-09T20:01:28.231Z,9.45
2022-12-09T20:04:19.130Z,9.38
2022-12-09T20:06:49.417Z,8.77
2022-12-09T20:09:25.940Z,9.02
2022-12-09T20:11:54.836Z,8.80
2022-12-09T20:14:23.220Z,8.82
2022-12-09T20:16:57.213Z,8.90
2022-12-09T20:19:25.809Z,8.38
2022-12-09T20:21:56.455Z,8.30
2022-12-09T20:24:29.469Z,8.10
2022-12-09T20:27:26.444Z,8.27
2022-12-09T20:30:00.369Z,7.30
2022-12-09T20:32:44.205Z,8.30
2022-12-09T20:35:12.190Z,9.35
2022-12-09T20:37:40.547Z,8.82
2022-12-09T20:40:12.502Z,8.45
2022-12-09T20:42:41.009Z,9.30
2022-12-09T20:45:09.967Z,9.60
2022-12-09T20:47:38.070Z,8.27
2022-12-09T20:50:06.982Z,9.63
2022-12-09T20:52:35.044Z,9.45
2022-12-09T20:55:03.027Z,8.90
2022-12-09T20:57:34.601Z,8.88
2022-12-09T21:00:02.783Z,10.18
2022-12-09T21:02:39.843Z,10.43
2022-12-09T21:05:10.370Z,10.45
2022-12-09T21:07:38.390Z,8.98
2022-12-09T21:10:10.644Z,9.60
2022-12-09T21:12:39.136Z,9.93
2022-12-09T21:15:07.592Z,9.70
2022-12-09T21:17:37.442Z,9.57
2022-12-09T21:20:08.773Z,9.75
2022-12-09T21:22:37.418Z,9.85
2022-12-09T21:25:10.001Z,9.80
2022-12-09T21:27:40.585Z,9.05
2022-12-09T21:30:10.037Z,9.55
2022-12-09T21:32:47.704Z,8.52
2022-12-09T21:35:15.893Z,9.40
2022-12-09T21:37:46.385Z,8.32
2022-12-09T21:40:14.498Z,8.40
2022-12-09T21:42:42.639Z,9.00
2022-12-09T21:45:11.018Z,8.48
2022-12-09T21:47:40.039Z,7.78
2022-12-09T21:50:09.455Z,6.22
2022-12-09T21:52:37.853Z,9.27
2022-12-09T21:55:10.729Z,8.60
2022-12-09T21:57:39.870Z,8.98
2022-12-09T22:00:09.358Z,8.13
2022-12-09T22:02:40.451Z,7.60
2022-12-09T22:05:08.956Z,8.70
2022-12-09T22:07:40.029Z,8.82
2022-12-09T22:10:09.280Z,9.50
2022-12-09T22:12:37.338Z,9.07
2022-12-09T22:15:07.490Z,8.65
2022-12-09T22:17:36.241Z,8.50
2022-12-09T22:20:44.461Z,7.43
2022-12-09T22:22:56.212Z,8.60
2022-12-09T22:25:24.084Z,8.30
2022-12-09T22:27:52.091Z,7.95
2022-12-09T22:30:20.232Z,7.78
2022-12-09T22:32:50.952Z,7.18
2022-12-09T22:35:19.961Z,7.35
2022-12-09T22:37:48.537Z,7.07
2022-12-09T22:40:16.867Z,8.32
2022-12-09T22:42:44.801Z,7.45
2022-12-09T22:45:13.164Z,6.35
2022-12-09T22:47:40.999Z,7.60
2022-12-09T22:50:09.714Z,7.45
2022-12-09T22:52:38.167Z,8.05
2022-12-09T22:55:06.708Z,8.70
2022-12-09T22:57:34.587Z,8.57
2022-12-09T23:00:02.651Z,7.68
2022-12-09T23:02:31.877Z,8.10
2022-12-09T23:04:59.721Z,7.70
2022-12-09T23:07:27.509Z,7.40
2022-12-09T23:09:55.842Z,7.55
2022-12-09T23:12:23.845Z,8.05
2022-12-09T23:14:52.092Z,7.80
2022-12-09T23:17:20.026Z,8.00
2022-12-09T23:19:47.900Z,7.90
2022-12-09T23:22:15.838Z,7.85
2022-12-09T23:24:43.881Z,8.40
2022-12-09T23:27:11.872Z,7.45
2022-12-09T23:29:40.041Z,9.20
2022-12-09T23:32:08.245Z,8.32
2022-12-09T23:34:36.775Z,7.38
2022-12-09T23:37:04.661Z,8.00
2022-12-09T23:39:32.822Z,8.27
2022-12-09T23:42:00.810Z,7.47
2022-12-09T23:44:28.953Z,8.15
2022-12-09T23:46:56.945Z,8.45
2022-12-09T23:49:24.987Z,8.75
2022-12-09T23:51:53.413Z,8.15
2022-12-09T23:54:21.371Z,9.45
2022-12-09T23:56:51.155Z,7.97
2022-12-09T23:59:22.260Z,9.05
